Crete, Illinois
Current Conditions -  °F | °C
As of 9:55 AM on Wednesday 28 Jan 2015 (Local Time) from KIGQ Reporting Station
Clear Clear  
Wind Chill: 18°   Ceiling: Unl
Heat Index: 28°   Visibility: 10mi
Dew Point: 17°   Wind: 10mph
Humidity: 63%   Direction: 170°S
Pressure: 30.29"   Gusts: NA
Location:  41.44°N, 87.63°W
Report Text: KIGQ 281555Z AUTO 17009KT 10SM CLR M02/M08 A3029 RMK AO2 T10231084
Loading
Personal Weather Stations






























Interactive Weather Map New forecast layout! Learn more

10-Day Weather Forecast

Advertisements
Track Severe Weather on mobile